Time;durP1;ratioP1;P1;durP2;ratioP2;P2;SDS_P1;SDS_P2;PMS_P1;PMS_P2;Temp;Humidity;BMP_temperature;BMP_pressure;BME280_temperature;BME280_humidity;BME280_pressure;Samples;Min_cycle;Max_cycle;Signal;HPM_P1;HPM_P2
2023/05/06 00:01:05;;;;;;;;;;;;;;;;;;5034575;28;20248;-24
2023/05/06 00:03:31;;;;;;;;;;;;;;;;;;5036083;28;19999;-30
2023/05/06 00:05:57;;;;;;;;;;;;;;;;;;5038248;28;19951;-23
2023/05/06 00:08:23;;;;;;;;;;;;;;;;;;5038380;28;19909;-22
2023/05/06 00:10:49;;;;;;;;;;;;;;;;;;5038593;28;19909;-25
2023/05/06 00:13:15;;;;;;;;;;;;;;;;;;5038241;28;19909;-29
2023/05/06 00:15:41;;;;;;;;;;;;;;;;;;5038567;28;20067;-23
2023/05/06 00:18:07;;;;;;;;;;;;;;;;;;5038244;28;19917;-22
2023/05/06 00:20:33;;;;;;;;;;;;;;;;;;5038179;28;19921;-23
2023/05/06 00:22:59;;;;;;;;;;;;;;;;;;5038267;28;19920;-26
2023/05/06 00:25:25;;;;;;;;;;;;;;;;;;5038106;28;20268;-28
2023/05/06 00:27:51;;;;;;;;;;;;;;;;;;5038333;28;19909;-25
2023/05/06 00:30:17;;;;;;;;;;;;;;;;;;5037008;28;19909;-22
2023/05/06 00:32:43;;;;;;;;;;;;;;;;;;5037906;28;19959;-27
2023/05/06 00:35:09;;;;;;;;;;;;;;;;;;5037921;28;19916;-22
2023/05/06 00:37:35;;;;;;;;;;;;;;;;;;5037809;28;20031;-26
2023/05/06 00:40:01;;;;;;;;;;;;;;;;;;5037851;28;19909;-23
2023/05/06 00:42:27;;;;;;;;;;;;;;;;;;5037954;28;19953;-25
2023/05/06 00:44:53;;;;;;;;;;;;;;;;;;5038327;28;19913;-27
2023/05/06 00:47:19;;;;;;;;;;;;;;;;;;5038030;28;20047;-25
2023/05/06 00:49:45;;;;;;;;;;;;;;;;;;5037942;28;19925;-24
2023/05/06 00:52:10;;;;;;;;;;;;;;;;;;5037824;28;19979;-24
2023/05/06 00:54:36;;;;;;;;;;;;;;;;;;5037606;28;20340;-24
2023/05/06 00:57:02;;;;;;;;;;;;;;;;;;5037565;28;20309;-24
2023/05/06 00:59:28;;;;;;;;;;;;;;;;;;5037467;28;20236;-26
2023/05/06 01:01:54;;;;;;;;;;;;;;;;;;5037358;28;19956;-24
2023/05/06 01:04:21;;;;;;;;;;;;;;;;;;5037137;28;19921;-23
2023/05/06 01:06:47;;;;;;;;;;;;;;;;;;5037667;28;20333;-22
2023/05/06 01:09:13;;;;;;;;;;;;;;;;;;5037333;28;19909;-23
2023/05/06 01:11:39;;;;;;;;;;;;;;;;;;5037224;28;19909;-25
2023/05/06 01:14:05;;;;;;;;;;;;;;;;;;5037360;28;19917;-28
2023/05/06 01:16:31;;;;;;;;;;;;;;;;;;5037084;28;19909;-23
2023/05/06 01:18:57;;;;;;;;;;;;;;;;;;5037397;28;19992;-24
2023/05/06 01:21:33;;;;;;;;;;;;;;;;;;5037010;28;20355;-24
2023/05/06 01:23:59;;;;;;;;;;;;;;;;;;5037155;28;20237;-22
2023/05/06 01:26:25;;;;;;;;;;;;;;;;;;5037005;28;19913;-22
2023/05/06 01:28:51;;;;;;;;;;;;;;;;;;5036899;28;19910;-23
2023/05/06 01:31:17;;;;;;;;;;;;;;;;;;5036926;28;19936;-26
2023/05/06 01:33:43;;;;;;;;;;;;;;;;;;5036785;28;19909;-25
2023/05/06 01:36:09;;;;;;;;;;;;;;;;;;5036759;28;20336;-24
2023/05/06 01:38:35;;;;;;;;;;;;;;;;;;5036758;28;19964;-22
2023/05/06 01:41:01;;;;;;;;;;;;;;;;;;5036940;28;19916;-24
2023/05/06 01:43:27;;;;;;;;;;;;;;;;;;5036508;28;19931;-24
2023/05/06 01:45:53;;;;;;;;;;;;;;;;;;5036698;28;20379;-24
2023/05/06 01:48:19;;;;;;;;;;;;;;;;;;5036835;28;19976;-26
2023/05/06 01:50:45;;;;;;;;;;;;;;;;;;5036588;28;19913;-25
2023/05/06 01:53:11;;;;;;;;;;;;;;;;;;5036683;28;19970;-25
2023/05/06 01:55:37;;;;;;;;;;;;;;;;;;5036486;28;19909;-25
2023/05/06 01:58:03;;;;;;;;;;;;;;;;;;5036409;28;19909;-26
2023/05/06 02:00:29;;;;;;;;;;;;;;;;;;5036332;28;19909;-25
2023/05/06 02:02:55;;;;;;;;;;;;;;;;;;5036178;28;20009;-26
2023/05/06 02:05:21;;;;;;;;;;;;;;;;;;5035318;28;19921;-22
2023/05/06 02:07:47;;;;;;;;;;;;;;;;;;5036223;28;19909;-25
2023/05/06 02:10:13;;;;;;;;;;;;;;;;;;5036197;28;19909;-22
2023/05/06 02:12:39;;;;;;;;;;;;;;;;;;5036031;28;19909;-23
2023/05/06 02:15:05;;;;;;;;;;;;;;;;;;5036024;28;19966;-23
2023/05/06 02:17:30;;;;;;;;;;;;;;;;;;5036061;28;19909;-25
2023/05/06 02:19:56;;;;;;;;;;;;;;;;;;5036007;28;19920;-28
2023/05/06 02:22:22;;;;;;;;;;;;;;;;;;5036285;28;19919;-25
2023/05/06 02:24:48;;;;;;;;;;;;;;;;;;5036101;28;19924;-24
2023/05/06 02:27:14;;;;;;;;;;;;;;;;;;5034349;28;20437;-24
2023/05/06 02:29:40;;;;;;;;;;;;;;;;;;5036027;28;19910;-23
2023/05/06 02:32:06;;;;;;;;;;;;;;;;;;5035629;28;19991;-25
2023/05/06 02:34:32;;;;;;;;;;;;;;;;;;5035663;28;19909;-22
2023/05/06 02:36:58;;;;;;;;;;;;;;;;;;5035921;28;19909;-23
2023/05/06 02:39:24;;;;;;;;;;;;;;;;;;5035589;28;19910;-22
2023/05/06 02:41:50;;;;;;;;;;;;;;;;;;5035546;28;19957;-22
2023/05/06 02:44:16;;;;;;;;;;;;;;;;;;5035410;28;19913;-30
2023/05/06 02:46:42;;;;;;;;;;;;;;;;;;5035772;28;19955;-23
2023/05/06 02:49:08;;;;;;;;;;;;;;;;;;5035425;28;19979;-25
2023/05/06 02:51:35;;;;;;;;;;;;;;;;;;5035662;28;20316;-28
2023/05/06 02:54:01;;;;;;;;;;;;;;;;;;5035199;28;20320;-24
2023/05/06 02:56:27;;;;;;;;;;;;;;;;;;5035560;28;19928;-25
2023/05/06 02:58:53;;;;;;;;;;;;;;;;;;5035524;28;19909;-22
2023/05/06 03:01:19;;;;;;;;;;;;;;;;;;5035187;28;19921;-26
2023/05/06 03:03:45;;;;;;;;;;;;;;;;;;5035338;28;19928;-22
2023/05/06 03:06:11;;;;;;;;;;;;;;;;;;5035000;28;20276;-29
2023/05/06 03:08:37;;;;;;;;;;;;;;;;;;5035109;28;19963;-22
2023/05/06 03:11:03;;;;;;;;;;;;;;;;;;5035303;28;19909;-22
2023/05/06 03:13:29;;;;;;;;;;;;;;;;;;5035166;28;19995;-24
2023/05/06 03:15:55;;;;;;;;;;;;;;;;;;5035190;28;19913;-24
2023/05/06 03:18:21;;;;;;;;;;;;;;;;;;5034902;28;19992;-24
2023/05/06 03:20:47;;;;;;;;;;;;;;;;;;5034895;28;19947;-25
2023/05/06 03:23:13;;;;;;;;;;;;;;;;;;5034600;28;19967;-26
2023/05/06 03:25:38;;;;;;;;;;;;;;;;;;5035252;28;20011;-24
2023/05/06 03:28:04;;;;;;;;;;;;;;;;;;5033682;28;20008;-23
2023/05/06 03:30:30;;;;;;;;;;;;;;;;;;5034766;28;19909;-22
2023/05/06 03:32:56;;;;;;;;;;;;;;;;;;5034819;28;19909;-26
2023/05/06 03:35:22;;;;;;;;;;;;;;;;;;5034638;28;19920;-21
2023/05/06 03:37:48;;;;;;;;;;;;;;;;;;5034070;28;19999;-25
2023/05/06 03:40:14;;;;;;;;;;;;;;;;;;5033528;28;19920;-27
2023/05/06 03:42:40;;;;;;;;;;;;;;;;;;5034528;28;19919;-25
2023/05/06 03:45:06;;;;;;;;;;;;;;;;;;5034441;28;19920;-23
2023/05/06 03:47:32;;;;;;;;;;;;;;;;;;5034781;28;19920;-27
2023/05/06 03:49:58;;;;;;;;;;;;;;;;;;5034456;28;19909;-22
2023/05/06 03:52:24;;;;;;;;;;;;;;;;;;5034539;28;19909;-25
2023/05/06 03:54:50;;;;;;;;;;;;;;;;;;5034699;28;19985;-22
2023/05/06 03:57:16;;;;;;;;;;;;;;;;;;5034399;28;19909;-24
2023/05/06 03:59:42;;;;;;;;;;;;;;;;;;5034427;28;19967;-29
2023/05/06 04:02:08;;;;;;;;;;;;;;;;;;5034317;28;19979;-27
2023/05/06 04:04:34;;;;;;;;;;;;;;;;;;5034075;28;19925;-26
2023/05/06 04:07:00;;;;;;;;;;;;;;;;;;5034603;28;20332;-22
2023/05/06 04:09:26;;;;;;;;;;;;;;;;;;5034284;28;19960;-23
2023/05/06 04:11:52;;;;;;;;;;;;;;;;;;5034255;28;19909;-22
2023/05/06 04:14:18;;;;;;;;;;;;;;;;;;5034292;28;20281;-25
2023/05/06 04:16:44;;;;;;;;;;;;;;;;;;5034160;28;20256;-24
2023/05/06 04:19:10;;;;;;;;;;;;;;;;;;5034221;28;20027;-24
2023/05/06 04:21:36;;;;;;;;;;;;;;;;;;5034531;28;20336;-23
2023/05/06 04:24:02;;;;;;;;;;;;;;;;;;5034043;28;20303;-25
2023/05/06 04:26:28;;;;;;;;;;;;;;;;;;5034139;28;19917;-23
2023/05/06 04:28:54;;;;;;;;;;;;;;;;;;5034203;28;19909;-26
2023/05/06 04:31:20;;;;;;;;;;;;;;;;;;5034146;28;19909;-22
2023/05/06 04:33:46;;;;;;;;;;;;;;;;;;5034067;28;20045;-22
2023/05/06 04:36:12;;;;;;;;;;;;;;;;;;5034172;28;20240;-22
2023/05/06 04:38:38;;;;;;;;;;;;;;;;;;5034066;28;20346;-26
2023/05/06 04:41:04;;;;;;;;;;;;;;;;;;5034079;28;19909;-25
2023/05/06 04:43:30;;;;;;;;;;;;;;;;;;5033886;28;19913;-22
2023/05/06 04:45:56;;;;;;;;;;;;;;;;;;5034246;28;19939;-25
2023/05/06 04:48:22;;;;;;;;;;;;;;;;;;5033973;28;19916;-22
2023/05/06 04:50:48;;;;;;;;;;;;;;;;;;5037534;28;20318;-24
2023/05/06 04:53:14;;;;;;;;;;;;;;;;;;5037879;28;19913;-24
2023/05/06 04:55:40;;;;;;;;;;;;;;;;;;5037702;28;20363;-25
2023/05/06 04:58:06;;;;;;;;;;;;;;;;;;5037582;28;19909;-28
2023/05/06 05:00:32;;;;;;;;;;;;;;;;;;5037571;28;19970;-25
2023/05/06 05:02:58;;;;;;;;;;;;;;;;;;5037502;28;19920;-28
2023/05/06 05:05:24;;;;;;;;;;;;;;;;;;5037056;28;20015;-23
2023/05/06 05:07:50;;;;;;;;;;;;;;;;;;5037324;28;19913;-29
2023/05/06 05:10:16;;;;;;;;;;;;;;;;;;5037537;28;19967;-24
2023/05/06 05:12:42;;;;;;;;;;;;;;;;;;5037254;28;19921;-24
2023/05/06 05:15:08;;;;;;;;;;;;;;;;;;5037278;28;20005;-26
2023/05/06 05:17:34;;;;;;;;;;;;;;;;;;5037226;28;19909;-25
2023/05/06 05:20:00;;;;;;;;;;;;;;;;;;5037215;28;19982;-23
2023/05/06 05:22:26;;;;;;;;;;;;;;;;;;5037388;28;19913;-26
2023/05/06 05:24:52;;;;;;;;;;;;;;;;;;5037235;28;19924;-22
2023/05/06 05:27:19;;;;;;;;;;;;;;;;;;5037047;28;19916;-25
2023/05/06 05:29:45;;;;;;;;;;;;;;;;;;5036982;28;19975;-24
2023/05/06 05:32:11;;;;;;;;;;;;;;;;;;5036934;28;20296;-22
2023/05/06 05:34:37;;;;;;;;;;;;;;;;;;5036881;28;19996;-24
2023/05/06 05:37:03;;;;;;;;;;;;;;;;;;5037100;28;19915;-27
2023/05/06 05:39:29;;;;;;;;;;;;;;;;;;5037033;28;19913;-26
2023/05/06 05:41:55;;;;;;;;;;;;;;;;;;5036632;28;19924;-24
2023/05/06 05:44:21;;;;;;;;;;;;;;;;;;5036833;28;19913;-24
2023/05/06 05:46:47;;;;;;;;;;;;;;;;;;5036924;28;19948;-22
2023/05/06 05:49:12;;;;;;;;;;;;;;;;;;5036604;28;19909;-21
2023/05/06 05:51:38;;;;;;;;;;;;;;;;;;5036628;28;20328;-23
2023/05/06 05:54:04;;;;;;;;;;;;;;;;;;5036732;28;20276;-26
2023/05/06 05:56:30;;;;;;;;;;;;;;;;;;5036500;28;19909;-25
2023/05/06 05:58:56;;;;;;;;;;;;;;;;;;5036485;28;19910;-25
2023/05/06 06:01:22;;;;;;;;;;;;;;;;;;5034414;28;20006;-22
2023/05/06 06:03:48;;;;;;;;;;;;;;;;;;5036197;28;19913;-23
2023/05/06 06:06:14;;;;;;;;;;;;;;;;;;5036157;28;19928;-28
2023/05/06 06:08:40;;;;;;;;;;;;;;;;;;5036522;28;19933;-24
2023/05/06 06:11:06;;;;;;;;;;;;;;;;;;5036272;28;19963;-22
2023/05/06 06:13:32;;;;;;;;;;;;;;;;;;5036174;28;19909;-24
2023/05/06 06:15:58;;;;;;;;;;;;;;;;;;5036353;28;19908;-25
2023/05/06 06:18:24;;;;;;;;;;;;;;;;;;5036099;28;19909;-25
2023/05/06 06:20:50;;;;;;;;;;;;;;;;;;5036050;28;20317;-22
2023/05/06 06:23:16;;;;;;;;;;;;;;;;;;5035783;28;19971;-25
2023/05/06 06:25:42;;;;;;;;;;;;;;;;;;5035934;28;19944;-26
2023/05/06 06:28:08;;;;;;;;;;;;;;;;;;5036093;28;19909;-27
2023/05/06 06:30:34;;;;;;;;;;;;;;;;;;5036088;28;19962;-23
2023/05/06 06:33:00;;;;;;;;;;;;;;;;;;5035746;28;20007;-24
2023/05/06 06:35:26;;;;;;;;;;;;;;;;;;5035724;28;19928;-23
2023/05/06 06:37:52;;;;;;;;;;;;;;;;;;5036016;28;19909;-25
2023/05/06 06:40:18;;;;;;;;;;;;;;;;;;5035911;28;19924;-26
2023/05/06 06:42:45;;;;;;;;;;;;;;;;;;5035800;28;19909;-24
2023/05/06 06:45:11;;;;;;;;;;;;;;;;;;5035760;28;19913;-26
2023/05/06 06:47:37;;;;;;;;;;;;;;;;;;5036017;28;20321;-24
2023/05/06 06:50:03;;;;;;;;;;;;;;;;;;5035445;28;20363;-26
2023/05/06 06:52:29;;;;;;;;;;;;;;;;;;5034329;28;20232;-24
2023/05/06 06:54:55;;;;;;;;;;;;;;;;;;5035331;28;19920;-24
2023/05/06 06:57:21;;;;;;;;;;;;;;;;;;5035313;28;19919;-23
2023/05/06 06:59:49;;;;;;;;;;;;;;;;;;5035319;28;19916;-24
2023/05/06 07:02:15;;;;;;;;;;;;;;;;;;5035146;28;19963;-23
2023/05/06 07:04:41;;;;;;;;;;;;;;;;;;5034946;28;19956;-21
2023/05/06 07:07:07;;;;;;;;;;;;;;;;;;5035146;28;19909;-23
2023/05/06 07:09:32;;;;;;;;;;;;;;;;;;5035866;28;19940;-25
2023/05/06 07:12:00;;;;;;;;;;;;;;;;;;5034920;28;19916;-21
2023/05/06 07:14:26;;;;;;;;;;;;;;;;;;5035221;28;20324;-23
2023/05/06 07:16:52;;;;;;;;;;;;;;;;;;5035226;28;19916;-28
2023/05/06 07:19:18;;;;;;;;;;;;;;;;;;5035200;28;19909;-25
2023/05/06 07:21:44;;;;;;;;;;;;;;;;;;5034784;28;19909;-25
2023/05/06 07:24:10;;;;;;;;;;;;;;;;;;5034655;28;19967;-24
2023/05/06 07:26:36;;;;;;;;;;;;;;;;;;5035024;28;19913;-22
2023/05/06 07:29:03;;;;;;;;;;;;;;;;;;5034765;28;19909;-23
2023/05/06 07:31:29;;;;;;;;;;;;;;;;;;5034690;28;19935;-24
2023/05/06 07:33:55;;;;;;;;;;;;;;;;;;5034572;28;19971;-29
2023/05/06 07:36:21;;;;;;;;;;;;;;;;;;5034635;28;19945;-26
2023/05/06 07:38:47;;;;;;;;;;;;;;;;;;5034653;28;20331;-27
2023/05/06 07:41:13;;;;;;;;;;;;;;;;;;5034565;28;19910;-25
2023/05/06 07:43:39;;;;;;;;;;;;;;;;;;5034665;28;19917;-23
2023/05/06 07:46:05;;;;;;;;;;;;;;;;;;5034562;28;19936;-23
2023/05/06 07:48:31;;;;;;;;;;;;;;;;;;5034495;28;19909;-26
2023/05/06 07:50:57;;;;;;;;;;;;;;;;;;5034794;28;20247;-25
2023/05/06 07:53:23;;;;;;;;;;;;;;;;;;5034420;28;20009;-24
2023/05/06 07:55:51;;;;;;;;;;;;;;;;;;5034607;28;19917;-24
2023/05/06 07:58:17;;;;;;;;;;;;;;;;;;5034685;28;19917;-28
2023/05/06 08:00:43;;;;;;;;;;;;;;;;;;5034264;28;20226;-23
2023/05/06 08:03:09;;;;;;;;;;;;;;;;;;5034232;28;19996;-26
2023/05/06 08:05:35;;;;;;;;;;;;;;;;;;5034188;28;19933;-26
2023/05/06 08:08:01;;;;;;;;;;;;;;;;;;5034336;28;19913;-23
2023/05/06 08:10:26;;;;;;;;;;;;;;;;;;5034303;28;19996;-26
2023/05/06 08:12:52;;;;;;;;;;;;;;;;;;5033100;28;19909;-28
2023/05/06 08:15:18;;;;;;;;;;;;;;;;;;5034240;28;19909;-25
2023/05/06 08:17:44;;;;;;;;;;;;;;;;;;5034469;28;20283;-25
2023/05/06 08:20:10;;;;;;;;;;;;;;;;;;5034204;28;19909;-26
2023/05/06 08:22:36;;;;;;;;;;;;;;;;;;5034122;28;19909;-27
2023/05/06 08:25:02;;;;;;;;;;;;;;;;;;5036734;28;19996;-26
2023/05/06 08:27:28;;;;;;;;;;;;;;;;;;5038382;28;19909;-24
2023/05/06 08:29:54;;;;;;;;;;;;;;;;;;5038117;28;19988;-23
2023/05/06 08:32:20;;;;;;;;;;;;;;;;;;5038467;28;19909;-23
2023/05/06 08:34:46;;;;;;;;;;;;;;;;;;5037952;28;20000;-23
2023/05/06 08:37:12;;;;;;;;;;;;;;;;;;5038220;28;19951;-24
2023/05/06 08:39:38;;;;;;;;;;;;;;;;;;5037873;28;19920;-23
2023/05/06 08:42:04;;;;;;;;;;;;;;;;;;5037844;28;19909;-24
2023/05/06 08:44:30;;;;;;;;;;;;;;;;;;5038022;28;19979;-32
2023/05/06 08:46:56;;;;;;;;;;;;;;;;;;5037701;28;20332;-30
2023/05/06 08:49:22;;;;;;;;;;;;;;;;;;5038222;28;19913;-26
2023/05/06 08:51:48;;;;;;;;;;;;;;;;;;5037543;28;19909;-26
2023/05/06 08:54:14;;;;;;;;;;;;;;;;;;5037126;28;19920;-23
2023/05/06 08:56:40;;;;;;;;;;;;;;;;;;5037893;28;20337;-23
2023/05/06 08:59:09;;;;;;;;;;;;;;;;;;5037461;28;19920;-25
2023/05/06 09:01:35;;;;;;;;;;;;;;;;;;5037540;28;19987;-26
2023/05/06 09:04:02;;;;;;;;;;;;;;;;;;5037081;28;20320;-25
2023/05/06 09:06:28;;;;;;;;;;;;;;;;;;5037717;28;19909;-22
2023/05/06 09:08:54;;;;;;;;;;;;;;;;;;5037420;28;20020;-26
2023/05/06 09:11:20;;;;;;;;;;;;;;;;;;5037299;28;19974;-26
2023/05/06 09:13:46;;;;;;;;;;;;;;;;;;5037116;28;19952;-21
2023/05/06 09:16:12;;;;;;;;;;;;;;;;;;5037175;28;19909;-24
2023/05/06 09:18:38;;;;;;;;;;;;;;;;;;5037185;28;19967;-28
2023/05/06 09:21:04;;;;;;;;;;;;;;;;;;5037177;28;19909;-21
2023/05/06 09:23:30;;;;;;;;;;;;;;;;;;5037259;28;19914;-23
2023/05/06 09:25:56;;;;;;;;;;;;;;;;;;5037325;28;19909;-24
2023/05/06 09:28:22;;;;;;;;;;;;;;;;;;5036992;28;20064;-29
2023/05/06 09:30:50;;;;;;;;;;;;;;;;;;5036959;28;19909;-23
2023/05/06 09:33:17;;;;;;;;;;;;;;;;;;5036843;28;19913;-24
2023/05/06 09:35:43;;;;;;;;;;;;;;;;;;5035572;28;20008;-29
2023/05/06 09:38:09;;;;;;;;;;;;;;;;;;5037040;28;19945;-23
2023/05/06 09:40:35;;;;;;;;;;;;;;;;;;5037020;28;19913;-23
2023/05/06 09:43:01;;;;;;;;;;;;;;;;;;5036765;28;19920;-23
2023/05/06 09:45:27;;;;;;;;;;;;;;;;;;5036700;28;20004;-22
2023/05/06 09:47:53;;;;;;;;;;;;;;;;;;5036683;28;19917;-23
2023/05/06 09:50:19;;;;;;;;;;;;;;;;;;5036886;28;19909;-26
2023/05/06 09:52:45;;;;;;;;;;;;;;;;;;5036507;28;19913;-25
2023/05/06 09:55:11;;;;;;;;;;;;;;;;;;5036438;28;20360;-22
2023/05/06 09:57:37;;;;;;;;;;;;;;;;;;5036479;28;19963;-22
2023/05/06 10:00:06;;;;;;;;;;;;;;;;;;5036393;28;19909;-22
2023/05/06 10:02:32;;;;;;;;;;;;;;;;;;5036265;28;19909;-22
2023/05/06 10:04:57;;;;;;;;;;;;;;;;;;5036090;28;19932;-25
2023/05/06 10:07:27;;;;;;;;;;;;;;;;;;5036324;28;19913;-27
2023/05/06 10:09:53;;;;;;;;;;;;;;;;;;5036448;28;19917;-25
2023/05/06 10:12:19;;;;;;;;;;;;;;;;;;5036156;28;19909;-26
2023/05/06 10:14:45;;;;;;;;;;;;;;;;;;5035121;28;20001;-25
2023/05/06 10:17:11;;;;;;;;;;;;;;;;;;5036039;28;19909;-23
2023/05/06 10:19:37;;;;;;;;;;;;;;;;;;5036315;28;20031;-28
2023/05/06 10:22:03;;;;;;;;;;;;;;;;;;5035947;28;19919;-26
2023/05/06 10:24:29;;;;;;;;;;;;;;;;;;5035876;28;19913;-24
2023/05/06 10:26:55;;;;;;;;;;;;;;;;;;5036184;28;19913;-26
2023/05/06 10:29:21;;;;;;;;;;;;;;;;;;5035852;28;19916;-28
2023/05/06 10:31:47;;;;;;;;;;;;;;;;;;5035762;28;20252;-25
2023/05/06 10:34:13;;;;;;;;;;;;;;;;;;5035714;28;20000;-26
2023/05/06 10:36:38;;;;;;;;;;;;;;;;;;5035677;28;19909;-26
2023/05/06 10:39:06;;;;;;;;;;;;;;;;;;5035863;28;20019;-25
2023/05/06 10:41:32;;;;;;;;;;;;;;;;;;5035767;28;19913;-23
2023/05/06 10:43:58;;;;;;;;;;;;;;;;;;5035629;28;20348;-23
2023/05/06 10:46:27;;;;;;;;;;;;;;;;;;5035364;28;20374;-22
2023/05/06 10:48:53;;;;;;;;;;;;;;;;;;5035588;28;20316;-26
2023/05/06 10:51:19;;;;;;;;;;;;;;;;;;5035608;28;20004;-23
2023/05/06 10:53:45;;;;;;;;;;;;;;;;;;5035728;28;20255;-26
2023/05/06 10:56:11;;;;;;;;;;;;;;;;;;5035739;28;19909;-26
2023/05/06 10:58:37;;;;;;;;;;;;;;;;;;5035450;28;19956;-21
2023/05/06 11:01:03;;;;;;;;;;;;;;;;;;5035658;28;19920;-25
2023/05/06 11:03:29;;;;;;;;;;;;;;;;;;5035255;28;20311;-24
2023/05/06 11:05:55;;;;;;;;;;;;;;;;;;5035142;28;20283;-23
2023/05/06 11:08:21;;;;;;;;;;;;;;;;;;5035190;28;20348;-27
2023/05/06 11:10:47;;;;;;;;;;;;;;;;;;5035463;28;19920;-31
2023/05/06 11:13:13;;;;;;;;;;;;;;;;;;5035121;28;19909;-24
2023/05/06 11:15:39;;;;;;;;;;;;;;;;;;5035167;28;20344;-25
2023/05/06 11:18:05;;;;;;;;;;;;;;;;;;5035390;28;20318;-22
2023/05/06 11:20:31;;;;;;;;;;;;;;;;;;5034049;28;20000;-23
2023/05/06 11:22:57;;;;;;;;;;;;;;;;;;5034967;28;19909;-23
2023/05/06 11:25:22;;;;;;;;;;;;;;;;;;5035156;28;19917;-22
2023/05/06 11:27:50;;;;;;;;;;;;;;;;;;5034404;28;20292;-25
2023/05/06 11:30:16;;;;;;;;;;;;;;;;;;5035088;28;19959;-23
2023/05/06 11:32:42;;;;;;;;;;;;;;;;;;5034741;28;19967;-24
2023/05/06 11:35:08;;;;;;;;;;;;;;;;;;5035004;28;19909;-27
2023/05/06 11:37:34;;;;;;;;;;;;;;;;;;5034722;28;20371;-22
2023/05/06 11:40:00;;;;;;;;;;;;;;;;;;5034968;28;19920;-23
2023/05/06 11:42:26;;;;;;;;;;;;;;;;;;5034748;28;19905;-23
2023/05/06 11:44:53;;;;;;;;;;;;;;;;;;5034819;28;19920;-25
2023/05/06 11:47:19;;;;;;;;;;;;;;;;;;5034569;28;20435;-24
2023/05/06 11:49:44;;;;;;;;;;;;;;;;;;5034540;28;19959;-25
2023/05/06 11:52:10;;;;;;;;;;;;;;;;;;5034713;28;20340;-25
2023/05/06 11:54:36;;;;;;;;;;;;;;;;;;5034564;28;19920;-23
2023/05/06 11:57:02;;;;;;;;;;;;;;;;;;5034487;28;19909;-22
2023/05/06 11:59:28;;;;;;;;;;;;;;;;;;5033916;28;19916;-22
2023/05/06 12:01:54;;;;;;;;;;;;;;;;;;5034680;28;19909;-25
2023/05/06 12:04:20;;;;;;;;;;;;;;;;;;5034121;28;19921;-27
2023/05/06 12:06:46;;;;;;;;;;;;;;;;;;5034681;28;19995;-25
2023/05/06 12:09:12;;;;;;;;;;;;;;;;;;5034315;28;19917;-29
2023/05/06 12:11:38;;;;;;;;;;;;;;;;;;5034586;28;19945;-27
2023/05/06 12:14:04;;;;;;;;;;;;;;;;;;5034485;28;19909;-24
2023/05/06 12:16:30;;;;;;;;;;;;;;;;;;5034327;28;20362;-25
2023/05/06 12:18:56;;;;;;;;;;;;;;;;;;5034362;28;19917;-24
2023/05/06 12:21:22;;;;;;;;;;;;;;;;;;5034330;28;19910;-26
2023/05/06 12:23:48;;;;;;;;;;;;;;;;;;5034082;28;19913;-26
2023/05/06 12:26:14;;;;;;;;;;;;;;;;;;5033723;28;19935;-24
2023/05/06 12:28:42;;;;;;;;;;;;;;;;;;5034536;28;19909;-25
2023/05/06 12:31:08;;;;;;;;;;;;;;;;;;5034146;28;19909;-23
2023/05/06 12:33:34;;;;;;;;;;;;;;;;;;5034567;28;19909;-22
2023/05/06 12:36:00;;;;;;;;;;;;;;;;;;5034162;28;19916;-23
2023/05/06 12:38:26;;;;;;;;;;;;;;;;;;5034368;28;19921;-24
2023/05/06 12:40:52;;;;;;;;;;;;;;;;;;5034107;28;19913;-26
2023/05/06 12:43:18;;;;;;;;;;;;;;;;;;5034214;28;19909;-25
2023/05/06 12:45:45;;;;;;;;;;;;;;;;;;5034024;28;20003;-23
2023/05/06 12:48:11;;;;;;;;;;;;;;;;;;5034051;28;20340;-25
2023/05/06 12:50:37;;;;;;;;;;;;;;;;;;5033062;28;19920;-27
2023/05/06 12:53:03;;;;;;;;;;;;;;;;;;5034240;28;19920;-26
2023/05/06 12:55:29;;;;;;;;;;;;;;;;;;5034005;28;19909;-27
2023/05/06 12:57:55;;;;;;;;;;;;;;;;;;5033955;28;19986;-23
2023/05/06 13:00:21;;;;;;;;;;;;;;;;;;5033947;28;19924;-22
2023/05/06 13:02:47;;;;;;;;;;;;;;;;;;5034089;28;19913;-24
2023/05/06 13:05:15;;;;;;;;;;;;;;;;;;5033688;28;20355;-28
2023/05/06 13:07:41;;;;;;;;;;;;;;;;;;5034081;28;20233;-25
2023/05/06 13:10:07;;;;;;;;;;;;;;;;;;5035081;28;19920;-24
2023/05/06 13:12:33;;;;;;;;;;;;;;;;;;5037624;28;19910;-25
2023/05/06 13:14:59;;;;;;;;;;;;;;;;;;5037319;28;19967;-24
2023/05/06 13:17:25;;;;;;;;;;;;;;;;;;5037235;28;19963;-25
2023/05/06 13:19:51;;;;;;;;;;;;;;;;;;5037232;28;19909;-25
2023/05/06 13:22:17;;;;;;;;;;;;;;;;;;5037025;28;19963;-26
2023/05/06 13:24:43;;;;;;;;;;;;;;;;;;5036093;28;20020;-25
2023/05/06 13:27:09;;;;;;;;;;;;;;;;;;5037102;28;19948;-24
2023/05/06 13:29:35;;;;;;;;;;;;;;;;;;5037344;28;19913;-23
2023/05/06 13:32:02;;;;;;;;;;;;;;;;;;5036998;28;19928;-25
2023/05/06 13:34:28;;;;;;;;;;;;;;;;;;5037010;28;20383;-25
2023/05/06 13:36:55;;;;;;;;;;;;;;;;;;5036951;28;20344;-24
2023/05/06 13:39:21;;;;;;;;;;;;;;;;;;5036863;28;20333;-29
2023/05/06 13:41:48;;;;;;;;;;;;;;;;;;5037049;28;19924;-24
2023/05/06 13:44:14;;;;;;;;;;;;;;;;;;5037530;28;20275;-22
2023/05/06 13:46:40;;;;;;;;;;;;;;;;;;5036748;28;19916;-25
2023/05/06 13:49:06;;;;;;;;;;;;;;;;;;5036959;28;20360;-25
2023/05/06 13:51:33;;;;;;;;;;;;;;;;;;5036930;28;20393;-25
2023/05/06 13:53:59;;;;;;;;;;;;;;;;;;5035553;28;20030;-25
2023/05/06 13:56:25;;;;;;;;;;;;;;;;;;5036569;28;19913;-26
2023/05/06 13:58:52;;;;;;;;;;;;;;;;;;5036511;28;19916;-25
2023/05/06 14:01:18;;;;;;;;;;;;;;;;;;5036498;28;19909;-21
2023/05/06 14:03:44;;;;;;;;;;;;;;;;;;5036343;28;19913;-23
2023/05/06 14:06:10;;;;;;;;;;;;;;;;;;5036510;28;19980;-26
2023/05/06 14:08:36;;;;;;;;;;;;;;;;;;5037048;28;19927;-25
2023/05/06 14:11:02;;;;;;;;;;;;;;;;;;5036555;28;19919;-25
2023/05/06 14:13:28;;;;;;;;;;;;;;;;;;5036437;28;19909;-24
2023/05/06 14:15:54;;;;;;;;;;;;;;;;;;5036496;28;19909;-24
2023/05/06 14:18:20;;;;;;;;;;;;;;;;;;5036169;28;19909;-24
2023/05/06 14:20:46;;;;;;;;;;;;;;;;;;5036132;28;19979;-27
2023/05/06 14:23:11;;;;;;;;;;;;;;;;;;5035314;28;19913;-26
2023/05/06 14:25:37;;;;;;;;;;;;;;;;;;5036208;28;19996;-23
2023/05/06 14:28:03;;;;;;;;;;;;;;;;;;5035969;28;19917;-24
2023/05/06 14:30:30;;;;;;;;;;;;;;;;;;5036004;28;20252;-27
2023/05/06 14:32:56;;;;;;;;;;;;;;;;;;5035771;28;20363;-26
2023/05/06 14:35:22;;;;;;;;;;;;;;;;;;5036102;28;19913;-23
2023/05/06 14:37:48;;;;;;;;;;;;;;;;;;5035999;28;19951;-24
2023/05/06 14:40:14;;;;;;;;;;;;;;;;;;5035732;28;20256;-23
2023/05/06 14:42:40;;;;;;;;;;;;;;;;;;5035638;28;19917;-31
2023/05/06 14:45:06;;;;;;;;;;;;;;;;;;5035540;28;19917;-25
2023/05/06 14:47:31;;;;;;;;;;;;;;;;;;5035886;28;19931;-28
2023/05/06 14:49:57;;;;;;;;;;;;;;;;;;5035632;28;19909;-30
2023/05/06 14:52:23;;;;;;;;;;;;;;;;;;5035777;28;19952;-21
2023/05/06 14:54:49;;;;;;;;;;;;;;;;;;5035444;28;19909;-25
2023/05/06 14:57:15;;;;;;;;;;;;;;;;;;5035535;28;19913;-25
2023/05/06 14:59:41;;;;;;;;;;;;;;;;;;5035574;28;19909;-23
2023/05/06 15:02:07;;;;;;;;;;;;;;;;;;5035180;28;20366;-24
2023/05/06 15:04:33;;;;;;;;;;;;;;;;;;5035037;28;19929;-26
2023/05/06 15:06:59;;;;;;;;;;;;;;;;;;5035701;28;19909;-23
2023/05/06 15:09:25;;;;;;;;;;;;;;;;;;5035232;28;20226;-22
2023/05/06 15:11:51;;;;;;;;;;;;;;;;;;5035133;28;20360;-25
2023/05/06 15:14:17;;;;;;;;;;;;;;;;;;5035171;28;19909;-22
2023/05/06 15:16:43;;;;;;;;;;;;;;;;;;5035136;28;19909;-24
2023/05/06 15:19:09;;;;;;;;;;;;;;;;;;5035343;28;20020;-23
2023/05/06 15:21:35;;;;;;;;;;;;;;;;;;5035006;28;19967;-22
2023/05/06 15:24:01;;;;;;;;;;;;;;;;;;5034849;28;19913;-22
2023/05/06 15:26:27;;;;;;;;;;;;;;;;;;5034866;28;19909;-27
2023/05/06 15:28:53;;;;;;;;;;;;;;;;;;5034934;28;19992;-23
2023/05/06 15:31:19;;;;;;;;;;;;;;;;;;5035112;28;19909;-25
2023/05/06 15:33:45;;;;;;;;;;;;;;;;;;5034736;28;19910;-24
2023/05/06 15:36:11;;;;;;;;;;;;;;;;;;5034795;28;20000;-27
2023/05/06 15:38:37;;;;;;;;;;;;;;;;;;5034934;28;19967;-25
2023/05/06 15:41:03;;;;;;;;;;;;;;;;;;5034722;28;19963;-27
2023/05/06 15:43:29;;;;;;;;;;;;;;;;;;5034855;28;20347;-25
2023/05/06 15:45:55;;;;;;;;;;;;;;;;;;5034934;28;20328;-27
2023/05/06 15:48:21;;;;;;;;;;;;;;;;;;5034891;28;19920;-25
2023/05/06 15:50:47;;;;;;;;;;;;;;;;;;5034604;28;20264;-23
2023/05/06 15:53:13;;;;;;;;;;;;;;;;;;5033493;28;19909;-24
2023/05/06 15:55:39;;;;;;;;;;;;;;;;;;5034548;28;19910;-27
2023/05/06 15:58:05;;;;;;;;;;;;;;;;;;5034453;28;19976;-24
2023/05/06 16:00:31;;;;;;;;;;;;;;;;;;5034740;28;20020;-27
2023/05/06 16:02:57;;;;;;;;;;;;;;;;;;5034342;28;19920;-24
2023/05/06 16:05:23;;;;;;;;;;;;;;;;;;5034329;28;19932;-24
2023/05/06 16:07:49;;;;;;;;;;;;;;;;;;5034498;28;19995;-26
2023/05/06 16:10:15;;;;;;;;;;;;;;;;;;5034651;28;19916;-26
2023/05/06 16:12:41;;;;;;;;;;;;;;;;;;5034274;28;20014;-31
2023/05/06 16:15:07;;;;;;;;;;;;;;;;;;5034357;28;19950;-24
2023/05/06 16:17:36;;;;;;;;;;;;;;;;;;5034513;28;19924;-23
2023/05/06 16:20:03;;;;;;;;;;;;;;;;;;5034234;28;20293;-26
2023/05/06 16:22:29;;;;;;;;;;;;;;;;;;5034501;28;19910;-22
2023/05/06 16:24:55;;;;;;;;;;;;;;;;;;5034501;28;19913;-29
2023/05/06 16:27:21;;;;;;;;;;;;;;;;;;5034276;28;20259;-23
2023/05/06 16:29:47;;;;;;;;;;;;;;;;;;5034259;28;20371;-28
2023/05/06 16:32:13;;;;;;;;;;;;;;;;;;5034357;28;19910;-26
2023/05/06 16:34:38;;;;;;;;;;;;;;;;;;5033150;28;19985;-23
2023/05/06 16:37:06;;;;;;;;;;;;;;;;;;5034165;28;19963;-23